createdAt,value
2023-04-12T00:00:18.606Z,26.65
2023-04-12T00:01:18.585Z,26.66
2023-04-12T00:02:18.725Z,26.66
2023-04-12T00:03:18.700Z,26.67
2023-04-12T00:04:18.749Z,26.67
2023-04-12T00:05:18.612Z,26.67
2023-04-12T00:06:18.551Z,26.67
2023-04-12T00:07:18.531Z,26.66
2023-04-12T00:08:18.511Z,26.65
2023-04-12T00:09:18.497Z,26.65
2023-04-12T00:10:18.479Z,26.65
2023-04-12T00:11:18.460Z,26.64
2023-04-12T00:12:18.467Z,26.66
2023-04-12T00:13:18.453Z,26.65
2023-04-12T00:14:18.432Z,26.67
2023-04-12T00:15:18.440Z,26.65
2023-04-12T00:16:18.437Z,26.63
2023-04-12T00:17:18.409Z,26.64
2023-04-12T00:18:18.386Z,26.66
2023-04-12T00:19:18.369Z,26.64
2023-04-12T00:20:18.372Z,26.64
2023-04-12T00:21:18.341Z,26.62
2023-04-12T00:22:18.335Z,26.63
2023-04-12T00:23:18.328Z,26.63
2023-04-12T00:24:18.321Z,26.64
2023-04-12T00:25:18.318Z,26.62
2023-04-12T00:26:18.332Z,26.62
2023-04-12T00:27:18.289Z,26.62
2023-04-12T00:28:18.287Z,26.62
2023-04-12T00:29:18.272Z,26.62
2023-04-12T00:30:18.272Z,26.62
2023-04-12T00:31:18.293Z,26.63
2023-04-12T00:32:18.267Z,26.61
2023-04-12T00:33:18.221Z,26.61
2023-04-12T00:34:18.227Z,26.62
2023-04-12T00:35:18.201Z,26.60
2023-04-12T00:36:18.276Z,26.62
2023-04-12T00:37:18.188Z,26.63
2023-04-12T00:38:18.168Z,26.60
2023-04-12T00:39:18.149Z,26.60
2023-04-12T00:40:18.142Z,26.61
2023-04-12T00:41:18.134Z,26.60
2023-04-12T00:42:18.124Z,26.59
2023-04-12T00:43:18.105Z,26.58
2023-04-12T00:44:18.199Z,26.58
2023-04-12T00:45:18.115Z,26.58
2023-04-12T00:46:18.123Z,26.60
2023-04-12T00:47:18.075Z,26.58
2023-04-12T00:48:18.061Z,26.56
2023-04-12T00:49:18.046Z,26.59
2023-04-12T00:50:18.058Z,26.57
2023-04-12T00:51:18.151Z,26.58
2023-04-12T00:52:18.029Z,26.58
2023-04-12T00:53:18.018Z,26.57
2023-04-12T00:54:18.081Z,26.57
2023-04-12T00:55:18.039Z,26.57
2023-04-12T00:56:17.998Z,26.57
2023-04-12T00:57:17.981Z,26.55
2023-04-12T00:58:17.957Z,26.55
2023-04-12T00:59:17.948Z,26.55
2023-04-12T01:00:17.939Z,26.56
2023-04-12T01:01:17.949Z,26.55
2023-04-12T01:02:17.989Z,26.56
2023-04-12T01:03:18.072Z,26.57
2023-04-12T01:04:17.899Z,26.56
2023-04-12T01:05:17.891Z,26.54
2023-04-12T01:06:17.886Z,26.54
2023-04-12T01:07:17.869Z,26.53
2023-04-12T01:08:17.858Z,26.54
2023-04-12T01:09:17.864Z,26.54
2023-04-12T01:10:17.847Z,26.53
2023-04-12T01:11:17.861Z,26.55
2023-04-12T01:12:17.825Z,26.54
2023-04-12T01:13:17.824Z,26.55
2023-04-12T01:14:17.841Z,26.52
2023-04-12T01:15:17.791Z,26.53
2023-04-12T01:16:17.880Z,26.54
2023-04-12T01:17:17.756Z,26.54
2023-04-12T01:18:17.753Z,26.54
2023-04-12T01:19:17.741Z,26.52
2023-04-12T01:20:17.717Z,26.53
2023-04-12T01:21:17.708Z,26.52
2023-04-12T01:22:17.693Z,26.52
2023-04-12T01:23:17.677Z,26.52
2023-04-12T01:24:17.658Z,26.52
2023-04-12T01:25:17.648Z,26.53
2023-04-12T01:26:17.738Z,26.51
2023-04-12T01:27:17.614Z,26.52
2023-04-12T01:28:17.610Z,26.52
2023-04-12T01:29:17.587Z,26.52
2023-04-12T01:30:17.574Z,26.50
2023-04-12T01:31:17.621Z,26.49
2023-04-12T01:32:17.570Z,26.52
2023-04-12T01:33:17.539Z,26.51
2023-04-12T01:34:17.505Z,26.50
2023-04-12T01:35:17.566Z,26.49
2023-04-12T01:36:17.473Z,26.51
2023-04-12T01:37:17.466Z,26.48
2023-04-12T01:38:17.443Z,26.48
2023-04-12T01:39:17.448Z,26.51
2023-04-12T01:40:17.438Z,26.48
2023-04-12T01:41:17.585Z,26.49
2023-04-12T01:42:17.403Z,26.50
2023-04-12T01:43:17.384Z,26.50
2023-04-12T01:44:17.374Z,26.49
2023-04-12T01:45:17.370Z,26.48
2023-04-12T01:46:17.450Z,26.48
2023-04-12T01:47:17.346Z,26.48
2023-04-12T01:48:17.330Z,26.48
2023-04-12T01:49:17.323Z,26.49
2023-04-12T01:50:17.311Z,26.48
2023-04-12T01:51:17.310Z,26.47
2023-04-12T01:52:17.270Z,26.45
2023-04-12T01:53:17.266Z,26.47
2023-04-12T01:54:17.272Z,26.46
2023-04-12T01:55:17.242Z,26.46
2023-04-12T01:56:17.229Z,26.48
2023-04-12T01:57:17.200Z,26.45
2023-04-12T01:58:17.192Z,26.46
2023-04-12T01:59:17.178Z,26.47
2023-04-12T02:00:17.175Z,26.45
2023-04-12T02:01:17.230Z,26.46
2023-04-12T02:02:17.289Z,26.45
2023-04-12T02:03:17.303Z,26.45
2023-04-12T02:04:17.210Z,26.45
2023-04-12T02:05:17.168Z,26.45
2023-04-12T02:06:17.181Z,26.43
2023-04-12T02:07:17.177Z,26.45
2023-04-12T02:08:17.187Z,26.45
2023-04-12T02:09:17.180Z,26.43
2023-04-12T02:10:17.184Z,26.43
2023-04-12T02:11:17.180Z,26.44
2023-04-12T02:12:17.189Z,26.46
2023-04-12T02:13:17.180Z,26.45
2023-04-12T02:14:17.176Z,26.43
2023-04-12T02:15:17.166Z,26.44
2023-04-12T02:16:17.179Z,26.42
2023-04-12T02:17:17.160Z,26.43
2023-04-12T02:18:17.162Z,26.45
2023-04-12T02:19:17.173Z,26.43
2023-04-12T02:20:17.169Z,26.45
2023-04-12T02:21:17.176Z,26.44
2023-04-12T02:22:17.192Z,26.44
2023-04-12T02:23:17.172Z,26.41
2023-04-12T02:24:17.176Z,26.43
2023-04-12T02:25:17.190Z,26.42
2023-04-12T02:26:17.199Z,26.43
2023-04-12T02:27:17.196Z,26.42
2023-04-12T02:28:17.219Z,26.44
2023-04-12T02:29:17.184Z,26.44
2023-04-12T02:30:17.193Z,26.41
2023-04-12T02:31:17.449Z,26.43
2023-04-12T02:32:17.186Z,26.40
2023-04-12T02:33:17.194Z,26.41
2023-04-12T02:34:17.190Z,26.43
2023-04-12T02:35:17.214Z,26.40
2023-04-12T02:36:17.188Z,26.39
2023-04-12T02:37:17.186Z,26.38
2023-04-12T02:38:17.180Z,26.40
2023-04-12T02:39:17.198Z,26.39
2023-04-12T02:40:17.185Z,26.40
2023-04-12T02:41:17.241Z,26.40
2023-04-12T02:42:17.186Z,26.42
2023-04-12T02:43:17.177Z,26.41
2023-04-12T02:44:17.171Z,26.39
2023-04-12T02:45:17.135Z,26.38
2023-04-12T02:46:17.221Z,26.39
2023-04-12T02:47:17.111Z,26.39
2023-04-12T02:48:17.084Z,26.39
2023-04-12T02:49:17.102Z,26.39
2023-04-12T02:50:17.049Z,26.38
2023-04-12T02:51:17.041Z,26.39
2023-04-12T02:52:17.030Z,26.38
2023-04-12T02:53:17.007Z,26.40
2023-04-12T02:54:16.995Z,26.40
2023-04-12T02:55:16.986Z,26.41
2023-04-12T02:56:16.958Z,26.36
2023-04-12T02:57:17.047Z,26.40
2023-04-12T02:58:16.938Z,26.39
2023-04-12T02:59:16.912Z,26.39
2023-04-12T03:00:16.914Z,26.37
2023-04-12T03:01:16.917Z,26.37
2023-04-12T03:02:16.910Z,26.40
2023-04-12T03:03:17.068Z,26.38
2023-04-12T03:04:17.021Z,26.39
2023-04-12T03:05:16.837Z,26.39
2023-04-12T03:06:16.835Z,26.36
2023-04-12T03:07:16.811Z,26.38
2023-04-12T03:08:16.793Z,26.38
2023-04-12T03:09:16.771Z,26.37
2023-04-12T03:10:16.793Z,26.36
2023-04-12T03:11:16.757Z,26.35
2023-04-12T03:12:16.733Z,26.35
2023-04-12T03:13:16.713Z,26.37
2023-04-12T03:14:16.697Z,26.37
2023-04-12T03:15:16.698Z,26.37
2023-04-12T03:16:16.755Z,26.35
2023-04-12T03:17:16.679Z,26.35
2023-04-12T03:18:16.668Z,26.35
2023-04-12T03:19:16.648Z,26.36
2023-04-12T03:20:16.632Z,26.34
2023-04-12T03:21:16.635Z,26.35
2023-04-12T03:22:16.620Z,26.33
2023-04-12T03:23:16.613Z,26.32
2023-04-12T03:24:16.607Z,26.35
2023-04-12T03:25:16.610Z,26.34
2023-04-12T03:26:16.572Z,26.34
2023-04-12T03:27:16.552Z,26.34
2023-04-12T03:28:16.540Z,26.33
2023-04-12T03:29:16.533Z,26.36
2023-04-12T03:30:16.509Z,26.35
2023-04-12T03:31:16.521Z,26.33
2023-04-12T03:32:16.488Z,26.36
2023-04-12T03:33:16.478Z,26.34
2023-04-12T03:34:16.460Z,26.33
2023-04-12T03:35:16.466Z,26.34
2023-04-12T03:36:16.461Z,26.34
2023-04-12T03:37:16.449Z,26.33
2023-04-12T03:38:16.411Z,26.32
2023-04-12T03:39:16.388Z,26.32
2023-04-12T03:40:16.382Z,26.34
2023-04-12T03:41:16.372Z,26.32
2023-04-12T03:42:29.485Z,26.32
2023-04-12T03:43:17.340Z,26.32
2023-04-12T03:44:16.330Z,26.32
2023-04-12T03:45:16.297Z,26.33
2023-04-12T03:46:16.315Z,26.32
2023-04-12T03:47:16.264Z,26.32
2023-04-12T03:48:16.270Z,26.32
2023-04-12T03:49:16.236Z,26.30
2023-04-12T03:50:16.234Z,26.27
2023-04-12T03:51:16.218Z,26.16
2023-04-12T03:52:16.217Z,26.18
2023-04-12T03:53:16.194Z,26.20
2023-04-12T03:54:16.187Z,26.26
2023-04-12T03:55:16.167Z,26.29
2023-04-12T03:56:16.152Z,26.12
2023-04-12T03:57:16.138Z,26.10
2023-04-12T03:58:16.125Z,26.11
2023-04-12T03:59:16.116Z,26.14
2023-04-12T04:00:16.113Z,26.23
2023-04-12T04:01:16.108Z,26.14
2023-04-12T04:02:16.154Z,26.06
2023-04-12T04:03:16.136Z,26.09
2023-04-12T04:04:16.209Z,26.15
2023-04-12T04:05:16.144Z,26.20
2023-04-12T04:06:16.079Z,26.13
2023-04-12T04:07:16.116Z,26.03
2023-04-12T04:08:16.148Z,26.04
2023-04-12T04:09:16.142Z,26.03
2023-04-12T04:10:16.154Z,26.09
2023-04-12T04:11:16.192Z,26.13
2023-04-12T04:12:16.213Z,26.07
2023-04-12T04:13:16.253Z,25.99
2023-04-12T04:14:16.250Z,26.01
2023-04-12T04:15:16.271Z,26.05
2023-04-12T04:16:16.341Z,26.10
2023-04-12T04:17:16.309Z,26.03
2023-04-12T04:18:16.322Z,25.94
2023-04-12T04:19:16.355Z,25.94
2023-04-12T04:20:16.385Z,25.96
2023-04-12T04:21:16.406Z,26.02
2023-04-12T04:22:16.429Z,26.05
2023-04-12T04:23:16.438Z,25.93
2023-04-12T04:24:16.461Z,25.91
2023-04-12T04:25:16.477Z,25.96
2023-04-12T04:26:16.501Z,25.99
2023-04-12T04:27:16.511Z,26.03
2023-04-12T04:28:16.545Z,25.98
2023-04-12T04:29:16.579Z,25.89
2023-04-12T04:30:16.620Z,25.84
2023-04-12T04:31:16.671Z,25.91
2023-04-12T04:32:16.675Z,25.96
2023-04-12T04:33:16.659Z,25.98
2023-04-12T04:34:16.681Z,25.90
2023-04-12T04:35:16.778Z,25.88
2023-04-12T04:36:16.737Z,25.88
2023-04-12T04:37:16.745Z,25.94
2023-04-12T04:38:16.777Z,25.94
2023-04-12T04:39:16.801Z,25.96
2023-04-12T04:40:16.822Z,25.82
2023-04-12T04:41:16.820Z,25.82
2023-04-12T04:42:16.847Z,25.88
2023-04-12T04:43:16.862Z,25.91
2023-04-12T04:44:16.893Z,25.91
2023-04-12T04:45:16.909Z,25.86
2023-04-12T04:46:16.983Z,25.83
2023-04-12T04:47:16.963Z,25.87
2023-04-12T04:48:16.991Z,25.85
2023-04-12T04:49:16.997Z,25.87
2023-04-12T04:50:17.043Z,25.89
2023-04-12T04:51:17.056Z,25.81
2023-04-12T04:52:17.087Z,25.79
2023-04-12T04:53:17.125Z,25.80
2023-04-12T04:54:17.141Z,25.80
2023-04-12T04:55:17.146Z,25.89
2023-04-12T04:56:17.165Z,25.89
2023-04-12T04:57:17.206Z,25.76
2023-04-12T04:58:17.214Z,25.77
2023-04-12T04:59:17.209Z,25.80
2023-04-12T05:00:17.185Z,25.79
2023-04-12T05:01:17.241Z,25.81
2023-04-12T05:02:17.202Z,25.82
2023-04-12T05:03:17.207Z,25.74
2023-04-12T05:04:17.191Z,25.72
2023-04-12T05:05:17.142Z,25.77
2023-04-12T05:06:17.149Z,25.83
2023-04-12T05:07:17.127Z,25.80
2023-04-12T05:08:17.127Z,25.75
2023-04-12T05:09:17.118Z,25.71
2023-04-12T05:10:17.092Z,25.74
2023-04-12T05:11:17.128Z,25.76
2023-04-12T05:12:17.065Z,25.76
2023-04-12T05:13:17.068Z,25.79
2023-04-12T05:14:17.089Z,25.75
2023-04-12T05:15:17.128Z,25.70
2023-04-12T05:16:17.174Z,25.74
2023-04-12T05:17:17.181Z,25.77
2023-04-12T05:18:17.238Z,25.78
2023-04-12T05:19:17.247Z,25.72
2023-04-12T05:20:17.250Z,25.68
2023-04-12T05:21:17.287Z,25.67
2023-04-12T05:22:17.308Z,25.74
2023-04-12T05:23:17.461Z,25.78
2023-04-12T05:24:17.368Z,25.78
2023-04-12T05:25:17.384Z,25.65
2023-04-12T05:26:17.430Z,25.67
2023-04-12T05:27:17.457Z,25.71
2023-04-12T05:28:17.621Z,25.77
2023-04-12T05:29:17.507Z,25.74
2023-04-12T05:30:17.531Z,25.74
2023-04-12T05:31:17.569Z,25.76
2023-04-12T05:32:17.492Z,25.74
2023-04-12T05:33:17.519Z,25.81
2023-04-12T05:34:17.508Z,25.99
2023-04-12T05:35:17.520Z,26.38
2023-04-12T05:36:17.449Z,26.66
2023-04-12T05:37:17.497Z,26.61
2023-04-12T05:38:17.477Z,26.57
2023-04-12T05:39:20.071Z,26.57
2023-04-12T05:40:17.420Z,26.75
2023-04-12T05:41:17.389Z,26.99
2023-04-12T05:42:17.355Z,27.18
2023-04-12T05:43:17.340Z,27.41
2023-04-12T05:44:17.320Z,27.52
2023-04-12T05:45:17.374Z,27.61
2023-04-12T05:46:17.295Z,27.71
2023-04-12T05:47:17.299Z,27.79
2023-04-12T05:48:17.286Z,27.88
2023-04-12T05:49:17.255Z,28.14
2023-04-12T05:50:17.234Z,28.33
2023-04-12T05:51:21.080Z,28.57
2023-04-12T05:52:18.190Z,28.68
2023-04-12T05:53:17.167Z,28.75
2023-04-12T05:54:17.162Z,28.83
2023-04-12T05:55:17.130Z,28.95
2023-04-12T05:56:17.152Z,29.11
2023-04-12T05:57:17.130Z,29.48
2023-04-12T05:58:17.139Z,29.41
2023-04-12T05:59:17.154Z,29.50
2023-04-12T06:00:17.052Z,29.64
2023-04-12T06:01:17.016Z,29.71
2023-04-12T06:02:17.126Z,29.94
2023-04-12T06:03:17.124Z,30.04
2023-04-12T06:04:17.256Z,30.11
2023-04-12T06:05:17.120Z,30.26
2023-04-12T06:06:17.190Z,30.36
2023-04-12T06:07:17.071Z,30.50
2023-04-12T06:08:17.157Z,30.64
2023-04-12T06:09:17.157Z,30.71
2023-04-12T06:10:17.607Z,30.87
2023-04-12T06:11:17.211Z,30.94
2023-04-12T06:12:17.227Z,31.00
2023-04-12T06:13:17.269Z,31.06
2023-04-12T06:14:17.304Z,31.00
2023-04-12T06:15:17.338Z,31.15
2023-04-12T06:16:17.417Z,31.21
2023-04-12T06:17:17.444Z,31.38
2023-04-12T06:18:17.521Z,31.37
2023-04-12T06:19:17.548Z,31.49
2023-04-12T06:20:17.603Z,31.53
2023-04-12T06:21:17.668Z,31.61
2023-04-12T06:22:17.694Z,31.84
2023-04-12T06:23:17.732Z,31.93
2023-04-12T06:24:17.700Z,32.05
2023-04-12T06:25:17.670Z,32.08
2023-04-12T06:26:18.585Z,32.22
2023-04-12T06:27:17.639Z,32.22
2023-04-12T06:28:17.608Z,32.34
2023-04-12T06:29:17.581Z,32.41
2023-04-12T06:30:17.547Z,32.07
2023-04-12T06:31:17.549Z,31.75
2023-04-12T06:32:17.508Z,30.61
2023-04-12T06:33:17.588Z,29.47
2023-04-12T06:34:17.579Z,28.70
2023-04-12T06:35:17.637Z,28.57
2023-04-12T06:36:17.791Z,28.84
2023-04-12T06:37:17.748Z,28.59
2023-04-12T06:38:18.609Z,28.58
2023-04-12T06:39:17.790Z,28.31
2023-04-12T06:40:17.814Z,27.92
2023-04-12T06:41:17.833Z,28.22
2023-04-12T06:42:17.839Z,29.06
2023-04-12T06:43:17.821Z,29.30
2023-04-12T06:44:17.821Z,29.37
2023-04-12T06:45:17.830Z,29.46
2023-04-12T06:46:17.847Z,29.55
2023-04-12T06:47:17.853Z,29.72
2023-04-12T06:48:17.978Z,29.82
2023-04-12T06:49:18.046Z,29.99
2023-04-12T06:50:17.997Z,30.12
2023-04-12T06:51:18.032Z,30.23
2023-04-12T06:52:18.081Z,30.34
2023-04-12T06:53:18.120Z,30.40
2023-04-12T06:54:18.206Z,30.48
2023-04-12T06:55:18.220Z,30.54
2023-04-12T06:56:19.020Z,30.64
2023-04-12T06:57:18.530Z,30.79
2023-04-12T06:58:18.325Z,30.82
2023-04-12T06:59:18.569Z,31.04
2023-04-12T07:00:18.393Z,31.04
2023-04-12T07:01:18.500Z,31.20
2023-04-12T07:02:18.701Z,31.27
2023-04-12T07:03:18.626Z,31.41
2023-04-12T07:04:18.544Z,31.48
2023-04-12T07:05:18.478Z,31.32
2023-04-12T07:06:24.991Z,31.15
2023-04-12T07:07:19.433Z,31.11
2023-04-12T07:08:18.414Z,30.94
2023-04-12T07:09:18.425Z,30.85
2023-04-12T07:10:18.538Z,30.80
2023-04-12T07:11:21.882Z,30.68
2023-04-12T07:12:18.356Z,30.57
2023-04-12T07:13:18.372Z,30.46
2023-04-12T07:14:18.287Z,30.33
2023-04-12T07:15:18.255Z,30.27
2023-04-12T07:16:18.471Z,30.18
2023-04-12T07:17:18.302Z,30.09
2023-04-12T07:18:18.215Z,29.93
2023-04-12T07:19:18.158Z,29.97
2023-04-12T07:20:18.156Z,29.89
2023-04-12T07:21:18.149Z,29.85
2023-04-12T07:22:18.131Z,29.80
2023-04-12T07:23:18.061Z,29.77
2023-04-12T07:24:18.036Z,29.64
2023-04-12T07:25:18.031Z,29.59
2023-04-12T07:26:18.095Z,29.50
2023-04-12T07:27:17.964Z,29.51
2023-04-12T07:28:17.964Z,29.48
2023-04-12T07:29:17.956Z,29.42
2023-04-12T07:30:17.903Z,29.40
2023-04-12T07:31:17.901Z,29.33
2023-04-12T07:32:17.943Z,29.33
2023-04-12T07:33:19.854Z,29.38
2023-04-12T07:34:17.928Z,29.36
2023-04-12T07:35:17.810Z,29.29
2023-04-12T07:36:17.866Z,29.34
2023-04-12T07:37:17.780Z,29.32
2023-04-12T07:38:17.756Z,29.30
2023-04-12T07:39:17.783Z,29.38
2023-04-12T07:40:17.724Z,29.39
2023-04-12T07:41:17.776Z,29.37
2023-04-12T07:42:17.663Z,29.39
2023-04-12T07:43:17.650Z,29.33
2023-04-12T07:44:17.623Z,29.31
2023-04-12T07:45:17.730Z,29.29
2023-04-12T07:46:17.638Z,29.30
2023-04-12T07:47:17.584Z,29.45
2023-04-12T07:48:17.539Z,29.53
2023-04-12T07:49:17.566Z,29.51
2023-04-12T07:50:17.484Z,29.49
2023-04-12T07:51:17.466Z,29.49
2023-04-12T07:52:17.479Z,29.50
2023-04-12T07:53:17.428Z,29.48
2023-04-12T07:54:17.400Z,29.46
2023-04-12T07:55:17.400Z,29.40
2023-04-12T07:56:17.389Z,29.35
2023-04-12T07:57:17.342Z,29.39
2023-04-12T07:58:17.315Z,29.34
2023-04-12T07:59:17.293Z,29.30
2023-04-12T08:00:17.265Z,29.40
2023-04-12T08:01:17.626Z,29.34
2023-04-12T08:02:17.310Z,29.32
2023-04-12T08:03:17.261Z,29.35
2023-04-12T08:04:17.278Z,29.39
2023-04-12T08:05:17.175Z,29.37
2023-04-12T08:06:17.238Z,29.38
2023-04-12T08:07:17.188Z,29.35
2023-04-12T08:08:17.093Z,29.39
2023-04-12T08:09:17.080Z,29.42
2023-04-12T08:10:17.145Z,29.42
2023-04-12T08:11:17.060Z,29.43
2023-04-12T08:12:16.990Z,29.42
2023-04-12T08:13:16.991Z,29.39
2023-04-12T08:14:17.030Z,29.42
2023-04-12T08:15:16.957Z,29.43
2023-04-12T08:16:16.953Z,29.40
2023-04-12T08:17:16.923Z,29.40
2023-04-12T08:18:16.982Z,29.38
2023-04-12T08:19:17.002Z,29.43
2023-04-12T08:20:17.003Z,29.39
2023-04-12T08:21:17.033Z,29.38
2023-04-12T08:22:17.103Z,29.37
2023-04-12T08:23:17.137Z,29.41
2023-04-12T08:24:17.162Z,29.43
2023-04-12T08:25:18.095Z,29.40
2023-04-12T08:26:17.179Z,29.42
2023-04-12T08:27:17.142Z,29.40
2023-04-12T08:28:17.151Z,29.46
2023-04-12T08:29:17.122Z,29.46
2023-04-12T08:30:17.112Z,29.42
2023-04-12T08:31:17.135Z,29.48
2023-04-12T08:32:17.125Z,29.58
2023-04-12T08:33:17.054Z,29.64
2023-04-12T08:34:17.041Z,29.53
2023-04-12T08:35:17.045Z,29.42
2023-04-12T08:36:17.041Z,29.38
2023-04-12T08:37:16.966Z,29.33
2023-04-12T08:38:16.999Z,29.36
2023-04-12T08:39:16.923Z,29.32
2023-04-12T08:40:16.928Z,29.28
2023-04-12T08:41:16.916Z,29.17
2023-04-12T08:42:16.859Z,29.14
2023-04-12T08:43:16.828Z,29.06
2023-04-12T08:44:16.818Z,29.01
2023-04-12T08:45:16.837Z,29.00
2023-04-12T08:46:16.842Z,29.01
2023-04-12T08:47:16.742Z,28.93
2023-04-12T08:48:16.731Z,28.93
2023-04-12T08:49:16.706Z,28.88
2023-04-12T08:50:16.708Z,28.83
2023-04-12T08:51:16.683Z,28.80
2023-04-12T08:52:16.659Z,28.77
2023-04-12T08:53:16.628Z,28.75
2023-04-12T08:54:16.641Z,28.75
2023-04-12T08:55:16.616Z,28.74
2023-04-12T08:56:16.656Z,28.67
2023-04-12T08:57:16.561Z,28.66
2023-04-12T08:58:16.573Z,28.64
2023-04-12T08:59:16.523Z,28.58
2023-04-12T09:00:16.555Z,28.58
2023-04-12T09:01:16.579Z,28.52
2023-04-12T09:02:16.665Z,28.51
2023-04-12T09:03:16.828Z,28.46
2023-04-12T09:04:16.842Z,28.45
2023-04-12T09:05:17.078Z,28.41
2023-04-12T09:06:16.661Z,28.40
2023-04-12T09:07:16.743Z,28.36
2023-04-12T09:08:16.748Z,28.37
2023-04-12T09:09:16.736Z,28.34
2023-04-12T09:10:16.750Z,28.31
2023-04-12T09:11:16.780Z,28.28
2023-04-12T09:12:16.818Z,28.25
2023-04-12T09:13:16.810Z,28.23
2023-04-12T09:14:16.844Z,28.21
2023-04-12T09:15:16.879Z,28.20
2023-04-12T09:16:16.908Z,28.20
2023-04-12T09:17:16.932Z,28.19
2023-04-12T09:18:17.656Z,28.15
2023-04-12T09:19:16.956Z,28.15
2023-04-12T09:20:16.954Z,28.13
2023-04-12T09:21:16.959Z,28.11
2023-04-12T09:22:16.863Z,28.05
2023-04-12T09:23:16.880Z,28.05
2023-04-12T09:24:16.921Z,28.02
2023-04-12T09:25:16.829Z,28.00
2023-04-12T09:26:16.968Z,27.97
2023-04-12T09:27:16.757Z,27.96
2023-04-12T09:28:16.780Z,27.93
2023-04-12T09:29:16.725Z,27.92
2023-04-12T09:30:16.739Z,27.90
2023-04-12T09:31:16.693Z,27.87
2023-04-12T09:32:16.712Z,27.85
2023-04-12T09:33:16.671Z,27.86
2023-04-12T09:34:16.675Z,27.83
2023-04-12T09:35:16.673Z,27.81
2023-04-12T09:36:16.729Z,27.78
2023-04-12T09:37:16.624Z,27.76
2023-04-12T09:38:16.571Z,27.74
2023-04-12T09:39:16.620Z,27.74
2023-04-12T09:40:16.743Z,27.78
2023-04-12T09:41:18.077Z,28.50
2023-04-12T09:42:32.458Z,28.71
2023-04-12T09:43:17.481Z,29.09
2023-04-12T09:44:16.494Z,29.36
2023-04-12T09:45:16.782Z,29.67
2023-04-12T09:46:16.518Z,30.12
2023-04-12T09:47:16.368Z,30.74
2023-04-12T09:48:16.545Z,31.45
2023-04-12T09:49:16.324Z,32.15
2023-04-12T09:50:16.324Z,32.26
2023-04-12T09:51:16.333Z,32.28
2023-04-12T09:52:16.224Z,32.24
2023-04-12T09:53:16.210Z,32.09
2023-04-12T09:54:16.239Z,32.07
2023-04-12T09:55:16.195Z,32.00
2023-04-12T09:56:16.130Z,31.96
2023-04-12T09:57:16.122Z,31.89
2023-04-12T09:58:16.095Z,31.90
2023-04-12T09:59:16.062Z,31.80
2023-04-12T10:00:16.080Z,31.63
2023-04-12T10:01:17.569Z,31.57
2023-04-12T10:02:16.151Z,31.52
2023-04-12T10:03:16.205Z,31.51
2023-04-12T10:04:16.247Z,31.37
2023-04-12T10:05:16.140Z,31.41
2023-04-12T10:06:15.950Z,31.33
2023-04-12T10:07:15.869Z,31.38
2023-04-12T10:08:15.880Z,31.37
2023-04-12T10:09:15.904Z,31.21
2023-04-12T10:10:15.917Z,31.15
2023-04-12T10:11:15.767Z,31.16
2023-04-12T10:12:16.055Z,31.06
2023-04-12T10:13:15.707Z,30.96
2023-04-12T10:14:17.624Z,30.86
2023-04-12T10:15:15.676Z,30.79
2023-04-12T10:16:15.779Z,30.67
2023-04-12T10:17:15.612Z,30.66
2023-04-12T10:18:15.639Z,30.72
2023-04-12T10:19:15.579Z,30.65
2023-04-12T10:20:15.705Z,30.57
2023-04-12T10:21:15.594Z,30.50
2023-04-12T10:22:15.561Z,30.49
2023-04-12T10:23:15.509Z,30.54
2023-04-12T10:24:15.489Z,30.55
2023-04-12T10:25:15.486Z,30.47
2023-04-12T10:26:15.487Z,30.35
2023-04-12T10:27:15.436Z,30.33
2023-04-12T10:28:15.449Z,30.34
2023-04-12T10:29:15.381Z,30.33
2023-04-12T10:30:15.341Z,30.33
2023-04-12T10:31:15.441Z,30.42
2023-04-12T10:32:15.457Z,30.30
2023-04-12T10:33:15.421Z,30.30
2023-04-12T10:34:15.300Z,30.44
2023-04-12T10:35:15.307Z,30.30
2023-04-12T10:36:15.277Z,30.41
2023-04-12T10:37:15.245Z,30.55
2023-04-12T10:38:15.269Z,30.75
2023-04-12T10:39:15.186Z,30.73
2023-04-12T10:40:15.190Z,30.83
2023-04-12T10:41:15.237Z,30.93
2023-04-12T10:42:15.125Z,31.03
2023-04-12T10:43:15.305Z,30.93
2023-04-12T10:44:15.071Z,30.83
2023-04-12T10:45:15.030Z,30.73
2023-04-12T10:46:15.045Z,30.61
2023-04-12T10:47:15.107Z,30.60
2023-04-12T10:48:15.064Z,30.70
2023-04-12T10:49:14.925Z,30.62
2023-04-12T10:50:15.013Z,30.69
2023-04-12T10:51:14.924Z,30.67
2023-04-12T10:52:14.850Z,30.65
2023-04-12T10:53:14.826Z,30.74
2023-04-12T10:54:15.004Z,30.83
2023-04-12T10:55:14.774Z,31.23
2023-04-12T10:56:14.768Z,31.30
2023-04-12T10:57:14.794Z,31.47
2023-04-12T10:58:14.722Z,31.75
2023-04-12T10:59:14.675Z,31.56
2023-04-12T11:00:14.760Z,31.43
2023-04-12T11:01:14.678Z,31.33
2023-04-12T11:02:14.808Z,31.40
2023-04-12T11:03:14.734Z,31.26
2023-04-12T11:04:14.994Z,31.27
2023-04-12T11:05:14.602Z,31.18
2023-04-12T11:06:27.135Z,31.20
2023-04-12T11:07:15.541Z,31.19
2023-04-12T11:08:14.480Z,31.11
2023-04-12T11:09:14.505Z,31.06
2023-04-12T11:10:14.551Z,31.01
2023-04-12T11:11:14.454Z,30.93
2023-04-12T11:12:14.410Z,30.91
2023-04-12T11:13:14.493Z,30.91
2023-04-12T11:14:14.360Z,30.82
2023-04-12T11:15:14.373Z,30.78
2023-04-12T11:16:14.327Z,30.71
2023-04-12T11:17:14.710Z,30.65
2023-04-12T11:18:14.501Z,30.55
2023-04-12T11:19:14.299Z,30.55
2023-04-12T11:20:14.449Z,30.53
2023-04-12T11:21:14.288Z,30.40
2023-04-12T11:22:14.208Z,30.44
2023-04-12T11:23:14.171Z,30.46
2023-04-12T11:24:15.333Z,30.37
2023-04-12T11:25:14.245Z,30.35
2023-04-12T11:26:14.827Z,30.35
2023-04-12T11:27:14.310Z,30.34
2023-04-12T11:28:27.873Z,30.29
2023-04-12T11:29:16.219Z,30.28
2023-04-12T11:30:15.184Z,30.22
2023-04-12T11:31:14.250Z,30.15
2023-04-12T11:32:14.286Z,30.12
2023-04-12T11:33:14.190Z,30.12
2023-04-12T11:34:16.112Z,30.12
2023-04-12T11:35:14.122Z,30.07
2023-04-12T11:36:14.051Z,30.07
2023-04-12T11:37:14.041Z,30.08
2023-04-12T11:38:13.987Z,30.05
2023-04-12T11:39:14.061Z,30.07
2023-04-12T11:40:13.974Z,30.06
2023-04-12T11:41:13.982Z,30.00
2023-04-12T11:42:13.999Z,29.94
2023-04-12T11:43:13.888Z,29.96
2023-04-12T11:44:13.914Z,29.78
2023-04-12T11:45:18.110Z,29.89
2023-04-12T11:46:13.954Z,29.86
2023-04-12T11:47:13.921Z,29.79
2023-04-12T11:48:13.899Z,29.76
2023-04-12T11:49:13.804Z,29.82
2023-04-12T11:50:13.789Z,29.80
2023-04-12T11:51:13.780Z,29.80
2023-04-12T11:52:13.743Z,29.78
2023-04-12T11:53:13.814Z,29.71
2023-04-12T11:54:13.724Z,29.69
2023-04-12T11:55:13.701Z,29.72
2023-04-12T11:56:13.678Z,29.73
2023-04-12T11:57:13.669Z,29.66
2023-04-12T11:58:13.634Z,29.58
2023-04-12T11:59:13.600Z,29.63
2023-04-12T12:00:13.587Z,29.59
2023-04-12T12:01:13.567Z,29.47
2023-04-12T12:02:22.660Z,29.55
2023-04-12T12:03:14.714Z,29.52
2023-04-12T12:04:13.836Z,29.51
2023-04-12T12:05:13.728Z,29.57
2023-04-12T12:06:13.916Z,29.50
2023-04-12T12:07:13.966Z,29.42
2023-04-12T12:08:13.456Z,29.39
2023-04-12T12:09:13.443Z,29.51
2023-04-12T12:10:20.906Z,29.40
2023-04-12T12:11:14.384Z,29.39
2023-04-12T12:12:13.437Z,29.43
2023-04-12T12:13:13.333Z,29.40
2023-04-12T12:14:13.327Z,29.38
2023-04-12T12:15:13.285Z,29.36
2023-04-12T12:16:13.326Z,29.32
2023-04-12T12:17:13.330Z,29.30
2023-04-12T12:18:13.238Z,29.30
2023-04-12T12:19:13.223Z,29.31
2023-04-12T12:20:13.177Z,29.32
2023-04-12T12:21:13.176Z,29.28
2023-04-12T12:22:13.175Z,29.28
2023-04-12T12:23:13.131Z,29.24
2023-04-12T12:24:13.108Z,29.27
2023-04-12T12:25:13.088Z,29.28
2023-04-12T12:26:18.868Z,29.27
2023-04-12T12:27:14.232Z,29.21
2023-04-12T12:28:13.176Z,29.16
2023-04-12T12:29:13.066Z,29.18
2023-04-12T12:30:13.014Z,29.18
2023-04-12T12:31:13.096Z,29.15
2023-04-12T12:32:13.055Z,29.18
2023-04-12T12:33:13.058Z,29.14
2023-04-12T12:34:12.925Z,29.15
2023-04-12T12:35:12.904Z,29.12
2023-04-12T12:36:12.862Z,29.11
2023-04-12T12:37:12.827Z,29.13
2023-04-12T12:38:12.796Z,29.11
2023-04-12T12:39:12.980Z,29.10
2023-04-12T12:40:12.758Z,29.11
2023-04-12T12:41:12.847Z,29.10
2023-04-12T12:42:12.770Z,29.09
2023-04-12T12:43:12.813Z,29.04
2023-04-12T12:44:12.836Z,29.07
2023-04-12T12:45:12.884Z,29.09
2023-04-12T12:46:12.991Z,29.08
2023-04-12T12:47:14.407Z,29.05
2023-04-12T12:48:13.082Z,29.01
2023-04-12T12:49:12.979Z,29.04
2023-04-12T12:50:13.070Z,29.04
2023-04-12T12:51:13.026Z,29.03
2023-04-12T12:52:13.999Z,29.06